Time;durP1;ratioP1;P1;durP2;ratioP2;P2;SDS_P1;SDS_P2;PMS_P1;PMS_P2;Temp;Humidity;BMP_temperature;BMP_pressure;BME280_temperature;BME280_humidity;BME280_pressure;Samples;Min_cycle;Max_cycle;Signal;HPM_P1;HPM_P2
2023/01/12 00:02:03;;;;;;;13.35;2.30;;;;;;;;;;5011107;28;20203;-75
2023/01/12 00:04:29;;;;;;;14.85;1.65;;;;;;;;;;4992498;28;20025;-75
2023/01/12 00:06:55;;;;;;;10.05;1.50;;;;;;;;;;5010279;28;20163;-76
2023/01/12 00:09:21;;;;;;;13.32;2.65;;;;;;;;;;4992299;28;20033;-75
2023/01/12 00:11:46;;;;;;;13.73;1.75;;;;;;;;;;5010865;28;20021;-75
2023/01/12 00:14:11;;;;;;;10.23;1.65;;;;;;;;;;5010430;28;20022;-75
2023/01/12 00:16:36;;;;;;;16.40;1.88;;;;;;;;;;4992289;28;20017;-75
2023/01/12 00:19:18;;;;;;;19.17;2.08;;;;;;;;;;5009064;28;20358;-76
2023/01/12 00:21:47;;;;;;;19.33;2.22;;;;;;;;;;5010399;28;20402;-75
2023/01/12 00:24:13;;;;;;;7.95;1.70;;;;;;;;;;5009672;28;20044;-76
2023/01/12 00:26:38;;;;;;;11.63;2.50;;;;;;;;;;5010425;28;20034;-76
2023/01/12 00:29:03;;;;;;;9.02;1.85;;;;;;;;;;4992204;28;20022;-75
2023/01/12 00:31:28;;;;;;;11.82;2.20;;;;;;;;;;4992750;28;20481;-75
2023/01/12 00:33:53;;;;;;;13.50;1.88;;;;;;;;;;5009929;28;20013;-75
2023/01/12 00:36:19;;;;;;;14.68;2.42;;;;;;;;;;4992867;28;20057;-76
2023/01/12 00:38:44;;;;;;;9.07;1.73;;;;;;;;;;5009270;28;20028;-75
2023/01/12 00:46:40;;;;;;;19.55;2.22;;;;;;;;;;4999846;28;20036;-75
2023/01/12 00:49:05;;;;;;;12.63;1.98;;;;;;;;;;5009083;28;20022;-76
2023/01/12 00:51:30;;;;;;;15.43;1.98;;;;;;;;;;5010032;28;20061;-75
2023/01/12 00:53:55;;;;;;;21.30;2.40;;;;;;;;;;4991903;28;20252;-76
2023/01/12 00:56:21;;;;;;;11.80;2.22;;;;;;;;;;5010036;28;20022;-76
2023/01/12 00:58:46;;;;;;;13.70;1.95;;;;;;;;;;4992350;28;20087;-76
2023/01/12 01:01:11;;;;;;;15.45;2.03;;;;;;;;;;4991966;28;20034;-75
2023/01/12 01:03:36;;;;;;;12.57;2.38;;;;;;;;;;5009336;28;20026;-76
2023/01/12 01:06:05;;;;;;;23.92;2.33;;;;;;;;;;5009917;28;20109;-76
2023/01/12 01:08:31;;;;;;;13.70;1.90;;;;;;;;;;4991205;28;20033;-75
2023/01/12 01:10:59;;;;;;;17.85;2.28;;;;;;;;;;5009688;28;20014;-76
2023/01/12 01:13:25;;;;;;;15.43;2.22;;;;;;;;;;5009360;28;20065;-76
2023/01/12 01:15:50;;;;;;;18.67;2.30;;;;;;;;;;4992125;28;20037;-76
2023/01/12 01:18:15;;;;;;;18.58;2.13;;;;;;;;;;4991426;28;20477;-76
2023/01/12 01:20:44;;;;;;;14.43;2.10;;;;;;;;;;5010049;28;20017;-76
2023/01/12 01:23:09;;;;;;;22.92;2.67;;;;;;;;;;4991834;28;20036;-76
2023/01/12 01:25:35;;;;;;;15.77;3.53;;;;;;;;;;4991438;28;20030;-76
2023/01/12 01:28:00;;;;;;;19.38;2.50;;;;;;;;;;5009620;28;20354;-75
2023/01/12 01:30:25;;;;;;;17.27;2.33;;;;;;;;;;4995619;28;20030;-76
2023/01/12 01:32:51;;;;;;;23.08;1.95;;;;;;;;;;4995672;28;20018;-76
2023/01/12 01:35:16;;;;;;;13.40;2.22;;;;;;;;;;4995230;28;20429;-75
2023/01/12 01:37:41;;;;;;;12.93;1.83;;;;;;;;;;4995336;28;20045;-76
2023/01/12 01:40:07;;;;;;;16.13;2.15;;;;;;;;;;4994834;28;20028;-75
2023/01/12 01:42:32;;;;;;;12.23;1.95;;;;;;;;;;5013145;28;20441;-75
2023/01/12 01:44:58;;;;;;;15.20;2.92;;;;;;;;;;4987431;28;20080;-76
2023/01/12 01:47:27;;;;;;;11.77;1.73;;;;;;;;;;5006512;28;20030;-75
2023/01/12 01:49:54;;;;;;;14.68;2.42;;;;;;;;;;4994867;28;20022;-75
2023/01/12 01:52:22;;;;;;;15.15;2.15;;;;;;;;;;4995350;28;20049;-75
2023/01/12 01:54:50;;;;;;;18.25;2.17;;;;;;;;;;5012763;28;20468;-76
2023/01/12 01:57:16;;;;;;;17.40;2.72;;;;;;;;;;5012898;28;20231;-76
2023/01/12 01:59:43;;;;;;;20.92;3.05;;;;;;;;;;5012414;28;20314;-76
2023/01/12 02:02:08;;;;;;;15.82;2.80;;;;;;;;;;5012527;28;20115;-75
2023/01/12 02:04:34;;;;;;;16.20;2.30;;;;;;;;;;4994370;28;20025;-75
2023/01/12 02:07:00;;;;;;;10.70;2.13;;;;;;;;;;5012233;28;20051;-75
2023/01/12 02:09:26;;;;;;;20.00;2.38;;;;;;;;;;4994024;28;20033;-76
2023/01/12 02:17:31;;;;;;;19.75;2.58;;;;;;;;;;5012772;28;20545;-76
2023/01/12 02:20:11;;;;;;;16.33;2.70;;;;;;;;;;5012104;28;20037;-75
2023/01/12 02:22:39;;;;;;;12.38;2.85;;;;;;;;;;4994912;28;20377;-76
2023/01/12 02:25:18;;;;;;;15.40;2.22;;;;;;;;;;5011987;28;20022;-75
2023/01/12 02:27:46;;;;;;;19.80;2.15;;;;;;;;;;5012275;28;20164;-76
2023/01/12 02:30:17;;;;;;;22.38;3.10;;;;;;;;;;4994620;28;20048;-76
2023/01/12 02:32:51;;;;;;;14.68;2.42;;;;;;;;;;5012532;28;20025;-75
2023/01/12 02:35:22;;;;;;;13.70;1.98;;;;;;;;;;5011869;28;20024;-75
2023/01/12 02:38:15;;;;;;;14.52;2.25;;;;;;;;;;5012128;28;20021;-76
2023/01/12 02:40:44;;;;;;;14.80;2.20;;;;;;;;;;4993285;28;20022;-75
2023/01/12 02:43:21;;;;;;;11.38;1.67;;;;;;;;;;5011921;28;20054;-75
2023/01/12 02:45:53;;;;;;;14.50;1.98;;;;;;;;;;4999896;28;20026;-76
2023/01/12 02:48:31;;;;;;;11.45;1.88;;;;;;;;;;4993510;28;20037;-75
2023/01/12 02:50:58;;;;;;;13.93;1.85;;;;;;;;;;4994367;28;20025;-75
2023/01/12 02:53:28;;;;;;;11.88;1.80;;;;;;;;;;4993922;28;20043;-75
2023/01/12 02:55:54;;;;;;;14.45;2.70;;;;;;;;;;5012090;28;20021;-75
2023/01/12 02:58:21;;;;;;;14.15;1.98;;;;;;;;;;5011095;28;20369;-76
2023/01/12 03:00:48;;;;;;;11.23;1.80;;;;;;;;;;4994034;28;20029;-75
2023/01/12 03:03:14;;;;;;;15.45;2.25;;;;;;;;;;5011502;28;20028;-75
2023/01/12 03:05:40;;;;;;;12.45;1.80;;;;;;;;;;5011869;28;20092;-75
2023/01/12 03:08:06;;;;;;;17.23;2.38;;;;;;;;;;4993612;28;20025;-76
2023/01/12 03:10:34;;;;;;;14.50;2.25;;;;;;;;;;5011568;28;20102;-75
2023/01/12 03:13:04;;;;;;;9.93;1.80;;;;;;;;;;5010798;28;20025;-75
2023/01/12 03:15:30;;;;;;;18.17;1.95;;;;;;;;;;4993759;28;20068;-75
2023/01/12 03:18:00;;;;;;;13.77;2.30;;;;;;;;;;4992931;28;20425;-76
2023/01/12 03:20:37;;;;;;;12.38;1.92;;;;;;;;;;4993122;28;20018;-75
2023/01/12 03:23:15;;;;;;;18.10;1.80;;;;;;;;;;5011107;28;20033;-76
2023/01/12 03:25:42;;;;;;;11.18;1.90;;;;;;;;;;5011276;28;20521;-75
2023/01/12 03:28:08;;;;;;;12.38;2.28;;;;;;;;;;4991235;28;20480;-75
2023/01/12 03:30:38;;;;;;;11.43;1.73;;;;;;;;;;5010554;28;20029;-75
2023/01/12 03:33:04;;;;;;;18.88;1.88;;;;;;;;;;5010785;28;20026;-75
2023/01/12 03:35:31;;;;;;;17.63;2.42;;;;;;;;;;4992615;28;20152;-75
2023/01/12 03:37:57;;;;;;;14.05;2.83;;;;;;;;;;5010337;28;20024;-75
2023/01/12 03:40:23;;;;;;;13.75;1.92;;;;;;;;;;5010348;28;20104;-75
2023/01/12 03:42:57;;;;;;;17.50;2.05;;;;;;;;;;4993188;28;20176;-75
2023/01/12 03:45:40;;;;;;;20.90;2.83;;;;;;;;;;5005038;28;20385;-75
2023/01/12 03:48:05;;;;;;;14.13;1.58;;;;;;;;;;5010125;28;20064;-75
2023/01/12 03:50:34;;;;;;;18.52;1.90;;;;;;;;;;5010405;28;20518;-75
2023/01/12 03:53:00;;;;;;;12.70;1.58;;;;;;;;;;5010780;28;20446;-75
2023/01/12 03:55:28;;;;;;;11.73;1.95;;;;;;;;;;4992647;28;20136;-76
2023/01/12 03:57:54;;;;;;;10.23;2.30;;;;;;;;;;4992509;28;20055;-75
2023/01/12 04:00:20;;;;;;;10.65;1.77;;;;;;;;;;5010547;28;20323;-75
2023/01/12 04:02:45;;;;;;;12.45;1.75;;;;;;;;;;5011074;28;20112;-75
2023/01/12 04:05:12;;;;;;;16.00;2.55;;;;;;;;;;5010442;28;20026;-75
2023/01/12 04:07:37;;;;;;;11.82;1.75;;;;;;;;;;4992627;28;20029;-75
2023/01/12 04:10:02;;;;;;;20.70;2.33;;;;;;;;;;4992457;28;20499;-75
2023/01/12 04:12:27;;;;;;;18.52;2.83;;;;;;;;;;4992757;28;20244;-75
2023/01/12 04:14:53;;;;;;;14.30;2.17;;;;;;;;;;4992585;28;20026;-75
2023/01/12 04:17:22;;;;;;;10.75;1.38;;;;;;;;;;5010520;28;20018;-75
2023/01/12 04:19:48;;;;;;;15.02;2.00;;;;;;;;;;5010248;28;20028;-75
2023/01/12 04:24:57;;;;;;;12.50;1.98;;;;;;;;;;5010233;28;20072;-75
2023/01/12 04:27:23;;;;;;;19.42;2.03;;;;;;;;;;5009734;28;20057;-75
2023/01/12 04:29:48;;;;;;;14.65;2.00;;;;;;;;;;4992600;28;20018;-75
2023/01/12 04:32:13;;;;;;;21.00;2.47;;;;;;;;;;5010747;28;20463;-75
2023/01/12 04:34:38;;;;;;;10.75;2.10;;;;;;;;;;5009780;28;20018;-75
2023/01/12 04:37:03;;;;;;;19.23;1.90;;;;;;;;;;4991935;28;20026;-75
2023/01/12 04:39:29;;;;;;;11.15;1.33;;;;;;;;;;4991430;28;20026;-75
2023/01/12 04:41:54;;;;;;;14.70;2.75;;;;;;;;;;5009871;28;20018;-76
2023/01/12 04:44:19;;;;;;;11.45;1.70;;;;;;;;;;4989266;28;20345;-75
2023/01/12 04:46:46;;;;;;;16.08;1.92;;;;;;;;;;5008024;28;20036;-75
2023/01/12 04:49:11;;;;;;;13.70;1.80;;;;;;;;;;5009605;28;20018;-75
2023/01/12 04:51:37;;;;;;;14.82;2.45;;;;;;;;;;4992112;28;20026;-75
2023/01/12 04:54:02;;;;;;;17.75;2.58;;;;;;;;;;4991570;28;20402;-75
2023/01/12 04:56:27;;;;;;;17.10;1.90;;;;;;;;;;4991812;28;20021;-75
2023/01/12 04:58:58;;;;;;;15.68;1.95;;;;;;;;;;4992234;28;20010;-75
2023/01/12 05:01:24;;;;;;;18.97;2.27;;;;;;;;;;5010454;28;20076;-75
2023/01/12 05:03:49;;;;;;;15.43;1.73;;;;;;;;;;4997521;28;20026;-75
2023/01/12 05:06:14;;;;;;;15.90;2.03;;;;;;;;;;4996744;28;20029;-75
2023/01/12 05:11:24;;;;;;;15.13;2.55;;;;;;;;;;5014211;28;20025;-75
2023/01/12 05:13:49;;;;;;;14.13;1.67;;;;;;;;;;5013690;28;20018;-75
2023/01/12 05:16:16;;;;;;;15.20;2.28;;;;;;;;;;5014226;28;20041;-75
2023/01/12 05:18:42;;;;;;;11.43;1.52;;;;;;;;;;5012932;28;20064;-75
2023/01/12 05:21:08;;;;;;;16.73;1.83;;;;;;;;;;5013871;28;20018;-75
2023/01/12 05:23:33;;;;;;;12.90;1.90;;;;;;;;;;5012987;28;20029;-75
2023/01/12 05:25:59;;;;;;;16.95;1.80;;;;;;;;;;4996139;28;20022;-75
2023/01/12 05:28:24;;;;;;;11.75;2.08;;;;;;;;;;4995670;28;20030;-75
2023/01/12 05:30:50;;;;;;;10.82;1.52;;;;;;;;;;5013426;28;20071;-75
2023/01/12 05:33:15;;;;;;;11.50;1.80;;;;;;;;;;4995431;28;20014;-75
2023/01/12 05:35:40;;;;;;;9.48;1.23;;;;;;;;;;5013261;28;20018;-75
2023/01/12 05:38:05;;;;;;;21.42;2.50;;;;;;;;;;4995247;28;20018;-75
2023/01/12 05:40:31;;;;;;;12.83;1.50;;;;;;;;;;5012674;28;20022;-75
2023/01/12 05:45:45;;;;;;;13.68;1.77;;;;;;;;;;4971148;28;20066;-75
2023/01/12 05:48:11;;;;;;;12.27;1.75;;;;;;;;;;4991790;28;20485;-75
2023/01/12 05:50:36;;;;;;;14.70;2.03;;;;;;;;;;5013087;28;20026;-75
2023/01/12 05:53:01;;;;;;;12.23;1.63;;;;;;;;;;5012999;28;20032;-75
2023/01/12 05:55:26;;;;;;;9.45;1.20;;;;;;;;;;4995092;28;20355;-75
2023/01/12 05:57:52;;;;;;;6.82;1.60;;;;;;;;;;4995349;28;20030;-75
2023/01/12 06:00:17;;;;;;;9.65;1.45;;;;;;;;;;5012870;28;20022;-75
2023/01/12 06:02:42;;;;;;;12.55;1.65;;;;;;;;;;5013387;28;20091;-75
2023/01/12 06:05:08;;;;;;;11.60;1.77;;;;;;;;;;5012848;28;20061;-76
2023/01/12 06:07:33;;;;;;;9.88;1.60;;;;;;;;;;4994915;28;20014;-75
2023/01/12 06:09:59;;;;;;;7.87;1.63;;;;;;;;;;4994610;28;20026;-75
2023/01/12 06:15:08;;;;;;;7.63;1.30;;;;;;;;;;5012536;28;20133;-75
2023/01/12 06:17:33;;;;;;;6.57;1.30;;;;;;;;;;4994541;28;20473;-75
2023/01/12 06:19:58;;;;;;;9.90;1.65;;;;;;;;;;4994251;28;20053;-75
2023/01/12 06:22:25;;;;;;;8.18;1.45;;;;;;;;;;5012727;28;20052;-75
2023/01/12 06:24:52;;;;;;;11.77;2.28;;;;;;;;;;4994051;28;20037;-75
2023/01/12 06:27:18;;;;;;;10.02;2.00;;;;;;;;;;5012289;28;20041;-75
2023/01/12 06:29:43;;;;;;;10.05;2.05;;;;;;;;;;4994886;28;20144;-75
2023/01/12 06:32:08;;;;;;;10.50;2.20;;;;;;;;;;4993520;28;20053;-75
2023/01/12 06:34:34;;;;;;;13.18;1.70;;;;;;;;;;4994115;28;20025;-75
2023/01/12 06:37:01;;;;;;;11.43;1.10;;;;;;;;;;5013607;28;20026;-75
2023/01/12 06:39:26;;;;;;;6.55;1.10;;;;;;;;;;5012785;28;20151;-75
2023/01/12 06:44:35;;;;;;;8.07;1.58;;;;;;;;;;5010112;28;20040;-75
2023/01/12 06:47:03;;;;;;;8.20;1.23;;;;;;;;;;5013490;28;20014;-75
2023/01/12 06:49:28;;;;;;;7.47;1.63;;;;;;;;;;5013764;28;20473;-75
2023/01/12 06:51:53;;;;;;;8.15;1.27;;;;;;;;;;5012943;28;20104;-75
2023/01/12 06:54:20;;;;;;;8.48;1.38;;;;;;;;;;5012661;28;20071;-75
2023/01/12 06:56:45;;;;;;;4.38;1.02;;;;;;;;;;5013075;28;20017;-75
2023/01/12 06:59:11;;;;;;;8.02;1.67;;;;;;;;;;5000289;28;20040;-75
2023/01/12 07:01:36;;;;;;;5.72;1.48;;;;;;;;;;4994840;28;20029;-75
2023/01/12 07:04:02;;;;;;;9.63;1.60;;;;;;;;;;4997841;28;20033;-75
2023/01/12 07:06:27;;;;;;;8.35;1.02;;;;;;;;;;5000763;28;20044;-75
2023/01/12 07:08:52;;;;;;;8.93;1.08;;;;;;;;;;5011918;28;20014;-75
2023/01/12 07:11:17;;;;;;;5.70;1.23;;;;;;;;;;4996614;28;20026;-75
2023/01/12 07:13:43;;;;;;;10.20;1.38;;;;;;;;;;5011432;28;20370;-75
2023/01/12 07:16:08;;;;;;;6.63;1.30;;;;;;;;;;5011656;28;20480;-75
2023/01/12 07:18:33;;;;;;;2.38;0.95;;;;;;;;;;5003962;28;20025;-75
2023/01/12 07:21:02;;;;;;;3.22;0.80;;;;;;;;;;4995337;28;20026;-75
2023/01/12 07:23:27;;;;;;;7.85;1.50;;;;;;;;;;4995300;28;20117;-75
2023/01/12 07:25:52;;;;;;;4.80;1.33;;;;;;;;;;4994461;28;20385;-75
2023/01/12 07:28:17;;;;;;;7.07;1.50;;;;;;;;;;5010732;28;20028;-75
2023/01/12 07:30:43;;;;;;;5.57;1.38;;;;;;;;;;4993699;28;20022;-75
2023/01/12 07:33:09;;;;;;;7.57;1.30;;;;;;;;;;4997117;28;20107;-75
2023/01/12 07:35:34;;;;;;;9.80;1.30;;;;;;;;;;5011408;28;20049;-75
2023/01/12 07:37:59;;;;;;;8.90;1.42;;;;;;;;;;4996322;28;20462;-75
2023/01/12 07:40:24;;;;;;;6.82;1.58;;;;;;;;;;5011903;28;20044;-76
2023/01/12 07:43:00;;;;;;;3.70;1.40;;;;;;;;;;4993411;28;20045;-76
2023/01/12 07:45:25;;;;;;;4.85;1.00;;;;;;;;;;4994001;28;20022;-75
2023/01/12 07:47:51;;;;;;;5.65;1.25;;;;;;;;;;4992250;28;20029;-75
2023/01/12 07:50:17;;;;;;;7.93;1.25;;;;;;;;;;4992350;28;20476;-75
2023/01/12 07:52:42;;;;;;;7.07;1.38;;;;;;;;;;5012651;28;20029;-75
2023/01/12 07:55:07;;;;;;;3.70;1.13;;;;;;;;;;5011667;28;20049;-75
2023/01/12 07:57:32;;;;;;;6.00;1.55;;;;;;;;;;4994369;28;20473;-75
2023/01/12 07:59:58;;;;;;;5.80;1.40;;;;;;;;;;4994399;28;20026;-75
2023/01/12 08:02:23;;;;;;;6.07;1.48;;;;;;;;;;5008820;28;20441;-75
2023/01/12 08:04:48;;;;;;;3.47;1.10;;;;;;;;;;5009688;28;20026;-75
2023/01/12 08:07:13;;;;;;;6.78;1.10;;;;;;;;;;5012408;28;20026;-75
2023/01/12 08:09:39;;;;;;;8.80;1.20;;;;;;;;;;5011920;28;20017;-75
2023/01/12 08:12:04;;;;;;;6.05;1.30;;;;;;;;;;4993004;28;20125;-75
2023/01/12 08:14:32;;;;;;;5.93;1.27;;;;;;;;;;4993057;28;20030;-75
2023/01/12 08:17:00;;;;;;;3.83;0.90;;;;;;;;;;5008227;28;21189;-75
2023/01/12 08:19:29;;;;;;;5.70;1.20;;;;;;;;;;4992813;28;20125;-75
2023/01/12 08:22:00;;;;;;;8.82;1.00;;;;;;;;;;5011642;28;20060;-75
2023/01/12 08:24:31;;;;;;;5.15;1.30;;;;;;;;;;4993282;28;20026;-75
2023/01/12 08:26:57;;;;;;;4.95;1.33;;;;;;;;;;5011571;28;20034;-74
2023/01/12 08:29:29;;;;;;;5.68;1.10;;;;;;;;;;5011725;28;20037;-74
2023/01/12 08:31:59;;;;;;;7.28;0.88;;;;;;;;;;5011104;28;20025;-74
2023/01/12 08:34:25;;;;;;;7.65;1.60;;;;;;;;;;5011839;28;20018;-74
2023/01/12 08:36:50;;;;;;;10.57;1.35;;;;;;;;;;5011883;28;20097;-74
2023/01/12 08:39:15;;;;;;;3.92;0.88;;;;;;;;;;4992653;28;20117;-73
2023/01/12 08:41:41;;;;;;;8.48;1.13;;;;;;;;;;5011576;28;20049;-74
2023/01/12 08:44:09;;;;;;;4.95;0.93;;;;;;;;;;5005643;28;20048;-74
2023/01/12 08:46:51;;;;;;;6.38;1.70;;;;;;;;;;5008588;28;20079;-74
2023/01/12 08:49:17;;;;;;;7.70;1.50;;;;;;;;;;5011009;28;20029;-74
2023/01/12 08:51:42;;;;;;;6.00;1.63;;;;;;;;;;5011498;28;20048;-74
2023/01/12 08:54:09;;;;;;;7.78;1.65;;;;;;;;;;5010723;28;20137;-75
2023/01/12 08:56:34;;;;;;;7.47;1.42;;;;;;;;;;5008374;28;20516;-75
2023/01/12 08:58:59;;;;;;;8.80;1.40;;;;;;;;;;4992452;28;20025;-75
2023/01/12 09:01:26;;;;;;;4.07;1.30;;;;;;;;;;4993819;28;20109;-75
2023/01/12 09:03:51;;;;;;;4.40;1.38;;;;;;;;;;4993983;28;20433;-76
2023/01/12 09:06:21;;;;;;;7.68;2.80;;;;;;;;;;4994806;28;20164;-76
2023/01/12 09:08:46;;;;;;;6.75;1.75;;;;;;;;;;5011142;28;20018;-76
2023/01/12 09:11:12;;;;;;;7.13;1.30;;;;;;;;;;4992577;28;20365;-76
2023/01/12 09:13:38;;;;;;;6.07;1.02;;;;;;;;;;5011218;28;20105;-76
2023/01/12 09:16:04;;;;;;;8.27;1.20;;;;;;;;;;5009765;28;20105;-76
2023/01/12 09:18:29;;;;;;;4.45;1.13;;;;;;;;;;5009079;28;20022;-76
2023/01/12 09:21:00;;;;;;;5.82;1.55;;;;;;;;;;4993331;28;20331;-76
2023/01/12 09:23:25;;;;;;;6.00;1.10;;;;;;;;;;4993180;28;20022;-76
2023/01/12 09:25:50;;;;;;;3.67;0.93;;;;;;;;;;5014728;28;20036;-76
2023/01/12 09:28:15;;;;;;;3.13;0.73;;;;;;;;;;5001977;28;20113;-76
2023/01/12 09:30:41;;;;;;;3.88;0.82;;;;;;;;;;5000771;28;20022;-75
2023/01/12 09:33:06;;;;;;;3.38;0.98;;;;;;;;;;4993079;28;20053;-75
2023/01/12 09:35:31;;;;;;;4.97;1.20;;;;;;;;;;5010957;28;20028;-75
2023/01/12 09:37:56;;;;;;;6.63;0.70;;;;;;;;;;4993276;28;20018;-75
2023/01/12 09:40:21;;;;;;;2.80;0.70;;;;;;;;;;4991721;28;20404;-76
2023/01/12 09:48:18;;;;;;;4.03;0.70;;;;;;;;;;5011626;28;20565;-75
2023/01/12 09:50:49;;;;;;;3.53;0.75;;;;;;;;;;4996121;28;20030;-75
2023/01/12 09:53:19;;;;;;;5.10;0.73;;;;;;;;;;5012469;28;20022;-75
2023/01/12 09:55:44;;;;;;;8.05;1.45;;;;;;;;;;4995491;28;20125;-75
2023/01/12 09:58:17;;;;;;;2.92;0.90;;;;;;;;;;5013002;28;20338;-75
2023/01/12 10:00:42;;;;;;;5.07;1.00;;;;;;;;;;5013477;28;20101;-75
2023/01/12 10:03:24;;;;;;;2.10;0.73;;;;;;;;;;5012488;28;20113;-79
2023/01/12 10:05:51;;;;;;;6.13;1.40;;;;;;;;;;5012768;28;20117;-76
2023/01/12 10:08:16;;;;;;;4.15;1.05;;;;;;;;;;4994665;28;20084;-76
2023/01/12 10:10:43;;;;;;;3.75;0.77;;;;;;;;;;4994951;28;20021;-77
2023/01/12 10:13:12;;;;;;;5.47;1.50;;;;;;;;;;4992995;28;20025;-76
2023/01/12 10:16:04;;;;;;;3.25;0.90;;;;;;;;;;4994858;28;20101;-76
2023/01/12 10:18:33;;;;;;;6.38;1.00;;;;;;;;;;5005064;28;20255;-77
2023/01/12 10:20:58;;;;;;;4.30;0.80;;;;;;;;;;5006952;28;20480;-76
2023/01/12 10:23:25;;;;;;;4.70;1.10;;;;;;;;;;5006992;28;20022;-76
2023/01/12 10:25:58;;;;;;;6.78;1.10;;;;;;;;;;4994661;28;20206;-77
2023/01/12 10:28:25;;;;;;;3.25;0.75;;;;;;;;;;4992505;28;20021;-76
2023/01/12 10:30:50;;;;;;;7.47;1.20;;;;;;;;;;4992173;28;20030;-76
2023/01/12 10:33:17;;;;;;;5.13;1.13;;;;;;;;;;5007074;28;20053;-77
2023/01/12 10:35:55;;;;;;;7.00;0.95;;;;;;;;;;5004781;28;20022;-77
2023/01/12 10:38:21;;;;;;;9.20;0.80;;;;;;;;;;5005367;28;20351;-76
2023/01/12 10:41:01;;;;;;;4.78;0.90;;;;;;;;;;4993457;28;20044;-77
2023/01/12 10:43:32;;;;;;;1.05;0.60;;;;;;;;;;4995276;28;20389;-77
2023/01/12 10:46:09;;;;;;;5.82;0.93;;;;;;;;;;5010377;28;20106;-77
2023/01/12 10:48:34;;;;;;;4.40;1.00;;;;;;;;;;4995756;28;20115;-76
2023/01/12 10:51:01;;;;;;;4.57;0.90;;;;;;;;;;4995515;28;20126;-77
2023/01/12 10:53:28;;;;;;;1.58;0.70;;;;;;;;;;4994682;28;20026;-77
2023/01/12 10:55:54;;;;;;;4.47;0.70;;;;;;;;;;5013542;28;20101;-77
2023/01/12 10:58:26;;;;;;;3.00;0.70;;;;;;;;;;4995738;28;20449;-76
2023/01/12 11:00:52;;;;;;;4.85;0.93;;;;;;;;;;5012559;28;20093;-76
2023/01/12 11:03:50;;;;;;;3.35;0.70;;;;;;;;;;4994431;28;20084;-77
2023/01/12 11:06:37;;;;;;;5.75;0.70;;;;;;;;;;4960756;28;20049;-77
2023/01/12 11:09:22;;;;;;;5.28;0.90;;;;;;;;;;5010939;28;20022;-77
2023/01/12 11:11:51;;;;;;;4.07;0.90;;;;;;;;;;4995515;28;20125;-77
2023/01/12 11:14:24;;;;;;;9.55;1.42;;;;;;;;;;4995290;28;20389;-76
2023/01/12 11:16:49;;;;;;;;;;;;;;;;;;4995522;28;20040;-77
2023/01/12 11:19:16;;;;;;;5.95;1.10;;;;;;;;;;5012068;28;19905;-77
2023/01/12 11:21:44;;;;;;;5.25;1.25;;;;;;;;;;5012790;28;20410;-77
2023/01/12 11:24:21;;;;;;;2.28;1.33;;;;;;;;;;5012873;28;20037;-77
2023/01/12 11:27:01;;;;;;;3.63;1.30;;;;;;;;;;5011577;28;20116;-76
2023/01/12 11:29:45;;;;;;;5.55;1.65;;;;;;;;;;4999045;28;20434;-76
2023/01/12 11:32:15;;;;;;;2.55;1.10;;;;;;;;;;5012785;28;20029;-76
2023/01/12 11:34:50;;;;;;;6.10;1.20;;;;;;;;;;5013034;28;20052;-76
2023/01/12 11:37:15;;;;;;;4.18;1.10;;;;;;;;;;4994221;28;20033;-76
2023/01/12 11:39:42;;;;;;;3.17;1.30;;;;;;;;;;4993925;28;20022;-77
2023/01/12 11:45:24;;;;;;;5.10;1.13;;;;;;;;;;5012869;28;20032;-77
2023/01/12 11:47:59;;;;;;;3.20;0.98;;;;;;;;;;4993629;28;20307;-77
2023/01/12 11:50:29;;;;;;;5.00;1.40;;;;;;;;;;4994995;28;20033;-77
2023/01/12 11:52:55;;;;;;;5.65;1.17;;;;;;;;;;5001855;28;20084;-77
2023/01/12 11:55:39;;;;;;;6.60;1.73;;;;;;;;;;5005817;28;20041;-77
2023/01/12 11:58:11;;;;;;;6.45;2.08;;;;;;;;;;4985276;28;20060;-77
2023/01/12 12:00:50;;;;;;;4.50;1.05;;;;;;;;;;4996703;28;20721;-77
2023/01/12 12:03:29;;;;;;;6.13;1.23;;;;;;;;;;5011696;28;20033;-89
2023/01/12 12:06:09;;;;;;;8.00;2.25;;;;;;;;;;5011689;28;20014;-88
2023/01/12 12:09:10;;;;;;;3.28;2.00;;;;;;;;;;5009570;28;20095;-87
2023/01/12 12:11:38;;;;;;;4.40;1.95;;;;;;;;;;4982875;28;20027;-77
2023/01/12 12:14:22;;;;;;;6.45;1.65;;;;;;;;;;5004773;28;20104;-77
2023/01/12 12:17:06;;;;;;;3.95;1.40;;;;;;;;;;5012073;28;20172;-77
2023/01/12 12:19:43;;;;;;;2.22;1.33;;;;;;;;;;5012041;28;20029;-77
2023/01/12 12:22:27;;;;;;;5.28;1.40;;;;;;;;;;5011849;28;20143;-76
2023/01/12 12:25:07;;;;;;;5.35;1.30;;;;;;;;;;5012465;28;20061;-77
2023/01/12 12:27:32;;;;;;;4.28;1.20;;;;;;;;;;5012100;28;20105;-78
2023/01/12 12:30:16;;;;;;;4.45;1.50;;;;;;;;;;4995286;28;20450;-78
2023/01/12 12:32:54;;;;;;;3.97;1.10;;;;;;;;;;5024464;28;20030;-78
2023/01/12 12:35:19;;;;;;;2.97;1.00;;;;;;;;;;4994746;28;20584;-78
2023/01/12 12:38:03;;;;;;;5.55;1.10;;;;;;;;;;5012196;28;20116;-78
2023/01/12 12:45:15;;;;;;;2.80;1.15;;;;;;;;;;5012224;28;20029;-78
2023/01/12 12:46:33;;;;;;;2.67;1.13;;;;;;;;;;5010571;28;20056;-78
2023/01/12 12:49:06;;;;;;;2.88;1.15;;;;;;;;;;5002581;28;20466;-78
2023/01/12 12:51:33;;;;;;;5.65;1.80;;;;;;;;;;5011829;28;20029;-78
2023/01/12 12:54:01;;;;;;;1.23;1.00;;;;;;;;;;5012035;28;20010;-78
2023/01/12 12:56:29;;;;;;;4.70;1.42;;;;;;;;;;5012056;28;20018;-78
2023/01/12 12:59:00;;;;;;;4.13;1.15;;;;;;;;;;5010397;28;20026;-78
2023/01/12 13:01:28;;;;;;;3.63;1.63;;;;;;;;;;5010346;28;20072;-78
2023/01/12 13:03:54;;;;;;;5.78;2.40;;;;;;;;;;5007915;28;20347;-77
2023/01/12 13:06:20;;;;;;;7.03;1.50;;;;;;;;;;5002727;28;20026;-78
2023/01/12 13:08:46;;;;;;;5.15;1.40;;;;;;;;;;5010124;28;20028;-78
2023/01/12 13:11:11;;;;;;;3.63;1.30;;;;;;;;;;5012136;28;20022;-78
2023/01/12 13:13:37;;;;;;;6.47;2.00;;;;;;;;;;5010952;28;20488;-78
2023/01/12 13:16:08;;;;;;;7.85;3.10;;;;;;;;;;5006167;28;20505;-78
2023/01/12 13:18:49;;;;;;;4.05;1.75;;;;;;;;;;4994169;28;20029;-78
2023/01/12 13:21:29;;;;;;;4.70;1.65;;;;;;;;;;5011942;28;20018;-78
2023/01/12 13:24:13;;;;;;;2.50;1.35;;;;;;;;;;5011041;28;20460;-78
2023/01/12 13:26:39;;;;;;;2.53;1.40;;;;;;;;;;5015142;28;20018;-78
2023/01/12 13:29:26;;;;;;;1.65;1.00;;;;;;;;;;4996827;28;20097;-78
2023/01/12 13:32:11;;;;;;;5.68;1.50;;;;;;;;;;5014948;28;20531;-77
2023/01/12 13:34:36;;;;;;;4.53;1.30;;;;;;;;;;4993891;28;20030;-78
2023/01/12 13:37:08;;;;;;;2.42;1.20;;;;;;;;;;4996993;28;20045;-78
2023/01/12 13:39:35;;;;;;;7.47;1.75;;;;;;;;;;4996227;28;20117;-78
2023/01/12 13:44:47;;;;;;;4.28;2.00;;;;;;;;;;4980654;28;20034;-78
2023/01/12 13:47:14;;;;;;;3.80;1.50;;;;;;;;;;5014571;28;20101;-78
2023/01/12 13:49:45;;;;;;;2.80;1.38;;;;;;;;;;5012133;28;20077;-78
2023/01/12 13:52:38;;;;;;;5.47;1.15;;;;;;;;;;5008530;28;20021;-78
2023/01/12 13:55:16;;;;;;;5.10;1.48;;;;;;;;;;4995053;28;20018;-78
2023/01/12 13:57:41;;;;;;;3.47;1.30;;;;;;;;;;5013947;28;20484;-78
2023/01/12 14:00:15;;;;;;;2.42;1.15;;;;;;;;;;5013552;28;20010;-78
2023/01/12 14:02:40;;;;;;;2.35;1.15;;;;;;;;;;5014942;28;20029;-78
2023/01/12 14:05:25;;;;;;;3.40;1.13;;;;;;;;;;5012854;28;20022;-77
2023/01/12 14:08:08;;;;;;;1.95;0.82;;;;;;;;;;5014785;28;20132;-77
2023/01/12 14:10:41;;;;;;;3.35;1.52;;;;;;;;;;5014857;28;20014;-78
2023/01/12 14:13:06;;;;;;;;;;;;;;;;;;5014193;28;20026;-77
2023/01/12 14:18:39;;;;;;;5.13;1.35;;;;;;;;;;5014706;28;20037;-77
2023/01/12 14:21:18;;;;;;;2.95;1.35;;;;;;;;;;5014932;28;20140;-77
2023/01/12 14:23:43;;;;;;;1.08;0.68;;;;;;;;;;4996113;28;20053;-77
2023/01/12 14:26:08;;;;;;;2.65;0.90;;;;;;;;;;4996178;28;20064;-77
2023/01/12 14:28:34;;;;;;;2.83;0.77;;;;;;;;;;5014525;28;20111;-78
2023/01/12 14:31:00;;;;;;;4.07;1.20;;;;;;;;;;5014348;28;20121;-78
2023/01/12 14:33:30;;;;;;;4.93;1.25;;;;;;;;;;5012435;28;20054;-78
2023/01/12 14:35:57;;;;;;;3.25;0.90;;;;;;;;;;5010968;28;20029;-77
2023/01/12 14:38:26;;;;;;;2.00;1.00;;;;;;;;;;5013739;28;20026;-78
2023/01/12 14:40:56;;;;;;;3.63;1.20;;;;;;;;;;4996582;28;20469;-78
2023/01/12 14:46:39;;;;;;;6.40;1.77;;;;;;;;;;5012630;28;20037;-78
2023/01/12 14:48:56;;;;;;;3.58;1.48;;;;;;;;;;4999588;28;20061;-78
2023/01/12 14:51:27;;;;;;;2.80;1.45;;;;;;;;;;5009342;28;20516;-78
2023/01/12 14:53:57;;;;;;;2.50;1.20;;;;;;;;;;5013889;28;20045;-78
2023/01/12 14:56:25;;;;;;;2.15;1.02;;;;;;;;;;5013731;28;20026;-77
2023/01/12 14:58:50;;;;;;;3.38;0.93;;;;;;;;;;5012731;28;20100;-77
2023/01/12 15:01:45;;;;;;;2.15;1.10;;;;;;;;;;5011301;28;20109;-77
2023/01/12 15:04:15;;;;;;;2.63;0.88;;;;;;;;;;4982286;28;20034;-77
2023/01/12 15:06:41;;;;;;;4.55;1.10;;;;;;;;;;4996194;28;20623;-77
2023/01/12 15:09:28;;;;;;;8.45;0.90;;;;;;;;;;5008830;28;20454;-77
2023/01/12 15:11:53;;;;;;;2.55;1.02;;;;;;;;;;5013629;28;20037;-77
2023/01/12 15:14:20;;;;;;;2.08;0.85;;;;;;;;;;5013520;28;20014;-77
2023/01/12 15:27:42;;;;;;;6.13;1.00;;;;;;;;;;5010020;28;20111;-77
2023/01/12 15:30:09;;;;;;;3.25;1.23;;;;;;;;;;4994515;28;20493;-77
2023/01/12 15:32:36;;;;;;;5.20;1.40;;;;;;;;;;5012922;28;20026;-77
2023/01/12 15:35:03;;;;;;;6.38;1.67;;;;;;;;;;5009548;28;20433;-77
2023/01/12 15:37:28;;;;;;;4.95;1.55;;;;;;;;;;4995100;28;20331;-77
2023/01/12 15:39:55;;;;;;;3.22;0.93;;;;;;;;;;5012598;28;20029;-78
2023/01/12 15:42:21;;;;;;;4.03;1.00;;;;;;;;;;5012952;28;20021;-77
2023/01/12 15:44:47;;;;;;;4.15;1.30;;;;;;;;;;5012791;28;20547;-77